Aviation Digital Data Service (ADDS)

Output produced by METARs form (1652 UTC 16 June 2019)
found at http://www.aviationweather.gov/metar/data/
 
FXMM 161400Z 24004KT CAVOK 18/M07 Q1028 NOSIG